createdAt,value
2024-05-09T00:00:49.054Z,100.00
2024-05-09T00:02:22.361Z,100.00
2024-05-09T00:03:55.736Z,100.00
2024-05-09T00:05:29.224Z,100.00
2024-05-09T00:07:02.552Z,100.00
2024-05-09T00:08:36.087Z,100.00
2024-05-09T00:10:15.153Z,100.00
2024-05-09T00:11:56.134Z,100.00
2024-05-09T00:13:29.446Z,100.00
2024-05-09T00:15:02.741Z,100.00
2024-05-09T00:16:37.418Z,100.00
2024-05-09T00:18:10.983Z,100.00
2024-05-09T00:19:45.823Z,100.00
2024-05-09T00:21:19.269Z,100.00
2024-05-09T00:22:52.688Z,100.00
2024-05-09T00:24:26.043Z,100.00
2024-05-09T00:25:59.324Z,100.00
2024-05-09T00:27:32.809Z,100.00
2024-05-09T00:29:06.151Z,100.00
2024-05-09T00:30:39.519Z,100.00
2024-05-09T00:32:12.944Z,100.00
2024-05-09T00:33:46.552Z,100.00
2024-05-09T00:35:20.030Z,100.00
2024-05-09T00:36:53.409Z,100.00
2024-05-09T00:38:26.684Z,100.00
2024-05-09T00:40:00.168Z,100.00
2024-05-09T00:41:33.577Z,100.00
2024-05-09T00:43:07.444Z,100.00
2024-05-09T00:44:40.847Z,100.00
2024-05-09T00:46:14.843Z,100.00
2024-05-09T00:47:48.498Z,100.00
2024-05-09T00:49:23.916Z,100.00
2024-05-09T00:50:58.033Z,100.00
2024-05-09T00:52:31.668Z,100.00
2024-05-09T00:54:05.805Z,100.00
2024-05-09T00:55:40.189Z,100.00
2024-05-09T00:57:13.597Z,100.00
2024-05-09T00:58:46.964Z,100.00
2024-05-09T01:00:27.233Z,100.00
2024-05-09T01:02:10.081Z,100.00
2024-05-09T01:03:44.782Z,100.00
2024-05-09T01:05:19.227Z,92.71
2024-05-09T01:06:52.699Z,87.68
2024-05-09T01:08:26.592Z,83.03
2024-05-09T01:09:59.855Z,75.08
2024-05-09T01:11:41.267Z,71.31
2024-05-09T01:13:14.596Z,69.36
2024-05-09T01:14:48.825Z,67.92
2024-05-09T01:16:22.157Z,69.99
2024-05-09T01:17:56.774Z,68.79
2024-05-09T01:19:31.534Z,63.14
2024-05-09T01:21:08.604Z,61.25
2024-05-09T01:22:42.321Z,57.75
2024-05-09T01:24:15.768Z,57.45
2024-05-09T01:25:49.048Z,56.35
2024-05-09T01:27:23.374Z,54.24
2024-05-09T01:28:56.646Z,52.58
2024-05-09T01:30:34.812Z,51.00
2024-05-09T01:32:10.358Z,50.84
2024-05-09T01:33:44.108Z,48.90
2024-05-09T01:35:17.562Z,48.50
2024-05-09T01:36:51.071Z,47.73
2024-05-09T01:38:24.347Z,46.58
2024-05-09T01:39:57.775Z,46.29
2024-05-09T01:41:31.069Z,45.38
2024-05-09T01:43:04.844Z,44.86
2024-05-09T01:44:38.181Z,44.90
2024-05-09T01:46:15.747Z,45.37
2024-05-09T01:47:49.224Z,44.44
2024-05-09T01:49:22.829Z,43.77
2024-05-09T01:50:56.355Z,43.12
2024-05-09T01:52:29.796Z,42.75
2024-05-09T01:54:03.840Z,42.79
2024-05-09T01:55:37.150Z,42.92
2024-05-09T01:57:10.499Z,42.81
2024-05-09T01:58:43.991Z,42.33
2024-05-09T02:00:25.893Z,42.32
2024-05-09T02:02:04.508Z,41.64
2024-05-09T02:03:37.923Z,42.17
2024-05-09T02:05:11.490Z,42.35
2024-05-09T02:06:44.774Z,41.64
2024-05-09T02:08:20.060Z,42.74
2024-05-09T02:09:54.259Z,41.19
2024-05-09T02:11:27.774Z,40.79
2024-05-09T02:13:01.260Z,40.54
2024-05-09T02:14:34.767Z,40.52
2024-05-09T02:16:15.212Z,40.35
2024-05-09T02:17:49.071Z,40.01
2024-05-09T02:19:22.677Z,40.46
2024-05-09T02:20:56.273Z,40.05
2024-05-09T02:22:29.626Z,40.05
2024-05-09T02:24:03.106Z,39.62
2024-05-09T02:25:36.513Z,39.99
2024-05-09T02:27:09.947Z,39.62
2024-05-09T02:28:43.401Z,39.76
2024-05-09T02:30:25.836Z,39.44
2024-05-09T02:32:08.954Z,40.06
2024-05-09T02:33:42.647Z,39.90
2024-05-09T02:35:16.300Z,39.78
2024-05-09T02:36:49.749Z,39.86
2024-05-09T02:38:23.024Z,39.86
2024-05-09T02:39:56.469Z,40.33
2024-05-09T02:41:29.860Z,41.07
2024-05-09T02:43:03.137Z,40.46
2024-05-09T02:44:36.598Z,41.37
2024-05-09T02:46:09.952Z,41.38
2024-05-09T02:47:43.496Z,40.01
2024-05-09T02:49:17.112Z,40.05
2024-05-09T02:50:52.339Z,39.75
2024-05-09T02:52:25.701Z,39.48
2024-05-09T02:53:59.114Z,39.62
2024-05-09T02:55:32.589Z,40.36
2024-05-09T02:57:06.253Z,40.22
2024-05-09T02:58:39.803Z,40.56
2024-05-09T03:00:19.022Z,40.58
2024-05-09T03:01:59.353Z,39.67
2024-05-09T03:03:33.181Z,40.05
2024-05-09T03:05:06.977Z,41.07
2024-05-09T03:06:43.931Z,42.23
2024-05-09T03:08:17.448Z,43.58
2024-05-09T03:09:50.793Z,44.44
2024-05-09T03:11:25.338Z,45.06
2024-05-09T03:12:58.754Z,45.42
2024-05-09T03:14:32.193Z,45.21
2024-05-09T03:16:05.802Z,45.35
2024-05-09T03:17:41.737Z,46.44
2024-05-09T03:19:15.592Z,44.82
2024-05-09T03:20:49.047Z,44.79
2024-05-09T03:22:22.312Z,44.45
2024-05-09T03:23:55.699Z,44.34
2024-05-09T03:25:29.028Z,45.42
2024-05-09T03:27:02.410Z,45.96
2024-05-09T03:28:35.635Z,47.06
2024-05-09T03:30:10.029Z,47.84
2024-05-09T03:31:43.453Z,47.62
2024-05-09T03:33:20.861Z,48.53
2024-05-09T03:34:54.803Z,49.20
2024-05-09T03:36:28.322Z,49.55
2024-05-09T03:38:01.772Z,51.68
2024-05-09T03:39:35.414Z,51.83
2024-05-09T03:41:09.155Z,51.96
2024-05-09T03:42:45.402Z,51.93
2024-05-09T03:44:19.358Z,52.97
2024-05-09T03:45:52.883Z,50.41
2024-05-09T03:47:26.654Z,48.55
2024-05-09T03:49:00.216Z,44.58
2024-05-09T03:50:35.759Z,43.50
2024-05-09T03:52:10.067Z,41.81
2024-05-09T03:53:43.544Z,40.68
2024-05-09T03:55:17.146Z,40.47
2024-05-09T03:56:50.618Z,42.04
2024-05-09T03:58:24.177Z,42.42
2024-05-09T03:59:57.655Z,42.34
2024-05-09T04:01:31.232Z,42.56
2024-05-09T04:03:07.299Z,41.78
2024-05-09T04:04:45.263Z,42.47
2024-05-09T04:06:27.128Z,43.27
2024-05-09T04:08:00.499Z,44.07
2024-05-09T04:09:33.924Z,45.04
2024-05-09T04:11:07.913Z,45.80
2024-05-09T04:12:41.194Z,46.74
2024-05-09T04:14:14.862Z,47.97
2024-05-09T04:15:48.171Z,48.41
2024-05-09T04:17:21.579Z,48.99
2024-05-09T04:18:54.919Z,48.49
2024-05-09T04:20:37.088Z,49.53
2024-05-09T04:22:13.312Z,46.68
2024-05-09T04:23:46.805Z,44.65
2024-05-09T04:25:20.035Z,44.18
2024-05-09T04:26:53.456Z,44.12
2024-05-09T04:28:27.207Z,44.56
2024-05-09T04:30:00.756Z,45.33
2024-05-09T04:31:37.522Z,47.25
2024-05-09T04:33:13.452Z,47.46
2024-05-09T04:34:47.924Z,47.57
2024-05-09T04:36:21.495Z,45.14
2024-05-09T04:37:55.060Z,44.74
2024-05-09T04:39:29.213Z,46.30
2024-05-09T04:41:03.813Z,46.41
2024-05-09T04:42:38.509Z,47.62
2024-05-09T04:44:12.596Z,45.97
2024-05-09T04:45:47.255Z,45.00
2024-05-09T04:47:22.621Z,44.67
2024-05-09T04:48:56.924Z,44.96
2024-05-09T04:50:36.844Z,45.06
2024-05-09T04:52:13.050Z,45.02
2024-05-09T04:53:47.265Z,43.74
2024-05-09T04:55:21.554Z,44.19
2024-05-09T04:56:55.521Z,43.97
2024-05-09T04:58:29.339Z,44.93
2024-05-09T05:00:07.254Z,45.85
2024-05-09T05:01:43.359Z,43.59
2024-05-09T05:03:17.804Z,43.83
2024-05-09T05:04:52.140Z,43.97
2024-05-09T05:06:26.015Z,44.55
2024-05-09T05:07:59.876Z,45.11
2024-05-09T05:09:33.681Z,45.76
2024-05-09T05:11:07.647Z,45.27
2024-05-09T05:13:00.056Z,42.88
2024-05-09T05:14:34.011Z,41.02
2024-05-09T05:16:08.113Z,42.07
2024-05-09T05:17:42.211Z,39.98
2024-05-09T05:19:17.579Z,40.00
2024-05-09T05:20:51.898Z,39.93
2024-05-09T05:22:25.597Z,39.72
2024-05-09T05:23:59.575Z,38.38
2024-05-09T05:25:33.374Z,38.66
2024-05-09T05:27:07.449Z,38.54
2024-05-09T05:28:41.234Z,38.66
2024-05-09T05:30:21.248Z,35.61
2024-05-09T05:31:59.069Z,36.70
2024-05-09T05:33:33.187Z,38.33
2024-05-09T05:35:07.021Z,39.42
2024-05-09T05:36:40.930Z,40.34
2024-05-09T05:38:15.152Z,41.41
2024-05-09T05:39:49.230Z,42.91
2024-05-09T05:41:23.062Z,44.40
2024-05-09T05:42:57.075Z,44.53
2024-05-09T05:44:30.826Z,44.32
2024-05-09T05:46:04.910Z,44.60
2024-05-09T05:47:39.091Z,45.55
2024-05-09T05:49:12.975Z,46.20
2024-05-09T05:50:47.282Z,45.33
2024-05-09T05:52:21.000Z,44.18
2024-05-09T05:53:55.606Z,42.15
2024-05-09T05:55:29.532Z,40.45
2024-05-09T05:57:03.276Z,39.38
2024-05-09T05:58:40.519Z,39.82
2024-05-09T06:00:21.593Z,38.87
2024-05-09T06:02:02.348Z,40.96
2024-05-09T06:03:36.113Z,42.09
2024-05-09T06:05:10.899Z,41.44
2024-05-09T06:06:44.636Z,39.92
2024-05-09T06:08:18.508Z,37.90
2024-05-09T06:09:52.217Z,38.53
2024-05-09T06:11:25.819Z,38.83
2024-05-09T06:13:00.020Z,39.57
2024-05-09T06:14:34.054Z,40.33
2024-05-09T06:16:08.725Z,39.33
2024-05-09T06:17:42.965Z,37.60
2024-05-09T06:19:17.258Z,37.39
2024-05-09T06:20:53.541Z,37.79
2024-05-09T06:22:27.592Z,38.22
2024-05-09T06:24:03.791Z,38.42
2024-05-09T06:25:39.463Z,39.57
2024-05-09T06:27:13.237Z,39.46
2024-05-09T06:28:47.277Z,39.84
2024-05-09T06:30:29.524Z,39.74
2024-05-09T06:32:09.020Z,40.96
2024-05-09T06:33:42.978Z,41.85
2024-05-09T06:35:16.923Z,41.83
2024-05-09T06:36:50.880Z,41.85
2024-05-09T06:38:24.731Z,42.59
2024-05-09T06:39:58.629Z,41.86
2024-05-09T06:41:32.767Z,40.74
2024-05-09T06:43:06.796Z,40.34
2024-05-09T06:44:40.558Z,39.72
2024-05-09T06:46:14.345Z,39.22
2024-05-09T06:47:48.045Z,39.43
2024-05-09T06:49:22.284Z,39.31
2024-05-09T06:50:56.151Z,38.67
2024-05-09T06:52:29.797Z,39.90
2024-05-09T06:54:03.488Z,39.98
2024-05-09T06:55:38.385Z,39.85
2024-05-09T06:57:12.208Z,39.63
2024-05-09T06:58:46.193Z,40.10
2024-05-09T07:00:27.480Z,39.64
2024-05-09T07:02:08.749Z,38.21
2024-05-09T07:03:43.049Z,37.93
2024-05-09T07:05:17.437Z,39.77
2024-05-09T07:06:51.299Z,40.15
2024-05-09T07:08:25.488Z,40.88
2024-05-09T07:09:59.341Z,40.05
2024-05-09T07:11:33.988Z,40.40
2024-05-09T07:13:15.245Z,41.26
2024-05-09T07:14:49.443Z,40.63
2024-05-09T07:16:23.398Z,41.35
2024-05-09T07:17:57.422Z,40.94
2024-05-09T07:19:31.508Z,41.11
2024-05-09T07:21:05.543Z,41.02
2024-05-09T07:22:39.180Z,40.84
2024-05-09T07:24:13.062Z,39.10
2024-05-09T07:25:47.015Z,39.98
2024-05-09T07:27:21.331Z,40.46
2024-05-09T07:28:55.070Z,37.65
2024-05-09T07:30:33.492Z,37.59
2024-05-09T07:32:09.476Z,40.39
2024-05-09T07:33:43.862Z,40.15
2024-05-09T07:35:17.841Z,39.15
2024-05-09T07:36:51.791Z,38.96
2024-05-09T07:38:25.895Z,38.63
2024-05-09T07:39:59.895Z,39.26
2024-05-09T07:41:33.847Z,39.28
2024-05-09T07:43:15.094Z,38.82
2024-05-09T07:44:48.949Z,40.28
2024-05-09T07:47:17.237Z,40.07
2024-05-09T07:53:38.227Z,40.47
2024-05-09T07:55:12.604Z,40.55
2024-05-09T07:56:46.956Z,40.19
2024-05-09T07:58:20.979Z,39.27
2024-05-09T07:59:54.789Z,39.87
2024-05-09T08:01:28.896Z,39.69
2024-05-09T08:03:02.856Z,38.80
2024-05-09T08:04:37.003Z,39.40
2024-05-09T08:06:10.984Z,39.25
2024-05-09T08:07:45.922Z,39.35
2024-05-09T08:09:21.326Z,40.12
2024-05-09T08:10:55.588Z,40.03
2024-05-09T08:12:29.452Z,39.60
2024-05-09T08:14:04.542Z,40.55
2024-05-09T08:15:38.658Z,40.61
2024-05-09T08:17:13.146Z,41.35
2024-05-09T08:18:47.183Z,39.61
2024-05-09T08:20:27.068Z,38.90
2024-05-09T08:22:07.488Z,39.58
2024-05-09T08:23:41.351Z,37.83
2024-05-09T08:25:15.861Z,38.27
2024-05-09T08:26:49.806Z,37.83
2024-05-09T08:28:23.672Z,37.34
2024-05-09T08:29:57.814Z,37.12
2024-05-09T08:31:31.728Z,37.04
2024-05-09T08:33:07.114Z,37.28
2024-05-09T08:34:41.855Z,36.96
2024-05-09T08:36:16.036Z,37.03
2024-05-09T08:37:50.528Z,37.76
2024-05-09T08:39:24.354Z,36.84
2024-05-09T08:40:58.508Z,37.70
2024-05-09T08:42:36.842Z,37.50
2024-05-09T08:44:13.787Z,37.03
2024-05-09T08:45:50.593Z,38.13
2024-05-09T08:47:25.207Z,37.09
2024-05-09T08:49:01.827Z,38.36
2024-05-09T08:50:39.491Z,37.48
2024-05-09T08:52:14.478Z,38.00
2024-05-09T08:53:48.389Z,38.38
2024-05-09T08:55:25.942Z,38.07
2024-05-09T08:57:00.551Z,38.69
2024-05-09T08:58:37.664Z,38.96
2024-05-09T09:00:15.104Z,37.70
2024-05-09T09:01:53.073Z,38.14
2024-05-09T09:03:32.265Z,38.42
2024-05-09T09:05:17.609Z,38.42
2024-05-09T09:06:57.096Z,38.26
2024-05-09T09:08:31.956Z,38.97
2024-05-09T09:10:08.575Z,39.16
2024-05-09T09:11:42.657Z,39.25
2024-05-09T09:13:16.855Z,38.72
2024-05-09T09:14:51.597Z,38.90
2024-05-09T09:16:38.232Z,37.39
2024-05-09T09:18:16.634Z,36.64
2024-05-09T09:19:50.419Z,36.82
2024-05-09T09:21:24.325Z,36.77
2024-05-09T09:22:59.311Z,37.95
2024-05-09T09:24:33.497Z,37.59
2024-05-09T09:26:07.642Z,37.91
2024-05-09T09:27:44.240Z,37.51
2024-05-09T09:29:32.124Z,37.07
2024-05-09T09:31:30.231Z,38.00
2024-05-09T09:33:04.733Z,38.08
2024-05-09T09:34:38.868Z,38.18
2024-05-09T09:36:15.408Z,38.92
2024-05-09T09:37:52.367Z,38.52
2024-05-09T09:39:29.166Z,37.86
2024-05-09T09:41:07.797Z,38.35
2024-05-09T09:42:43.637Z,37.54
2024-05-09T09:44:20.172Z,37.09
2024-05-09T09:45:55.755Z,37.53
2024-05-09T09:47:30.947Z,37.56
2024-05-09T09:49:04.947Z,37.53
2024-05-09T09:50:39.912Z,37.13
2024-05-09T09:52:14.517Z,37.43
2024-05-09T09:53:50.260Z,36.70
2024-05-09T09:55:27.417Z,37.38
2024-05-09T09:57:03.565Z,37.29
2024-05-09T09:58:39.713Z,38.60
2024-05-09T10:00:20.726Z,38.13
2024-05-09T10:01:58.230Z,37.89
2024-05-09T10:03:32.995Z,38.40
2024-05-09T10:05:08.125Z,38.29
2024-05-09T10:06:44.201Z,38.39
2024-05-09T10:08:18.614Z,37.50
2024-05-09T10:09:57.227Z,37.56
2024-05-09T10:11:31.774Z,37.57
2024-05-09T10:13:09.328Z,37.59
2024-05-09T10:14:49.883Z,38.54
2024-05-09T10:16:23.659Z,36.44
2024-05-09T10:18:07.250Z,35.98
2024-05-09T10:19:40.900Z,36.49
2024-05-09T10:21:21.076Z,37.48
2024-05-09T10:22:54.459Z,37.04
2024-05-09T10:24:28.190Z,36.32
2024-05-09T10:26:05.735Z,36.97
2024-05-09T10:27:43.225Z,37.23
2024-05-09T10:29:19.068Z,34.94
2024-05-09T10:31:11.094Z,35.18
2024-05-09T10:32:45.977Z,36.25
2024-05-09T10:34:24.098Z,36.09
2024-05-09T10:36:04.659Z,36.46
2024-05-09T10:37:38.574Z,36.43
2024-05-09T10:39:13.863Z,36.05
2024-05-09T10:40:49.225Z,36.28
2024-05-09T10:42:22.650Z,35.77
2024-05-09T10:43:56.072Z,35.46
2024-05-09T10:45:29.712Z,35.77
2024-05-09T10:47:03.556Z,36.15
2024-05-09T10:48:37.902Z,35.84
2024-05-09T10:50:18.551Z,36.82
2024-05-09T10:51:59.068Z,37.05
2024-05-09T10:53:32.925Z,36.77
2024-05-09T10:55:06.702Z,37.05
2024-05-09T10:56:41.315Z,37.03
2024-05-09T10:58:20.676Z,36.68
2024-05-09T10:59:54.073Z,36.17
2024-05-09T11:01:28.359Z,36.75
2024-05-09T11:03:02.235Z,36.67
2024-05-09T11:04:37.307Z,36.73
2024-05-09T11:06:12.290Z,37.23
2024-05-09T11:07:45.805Z,37.61
2024-05-09T11:09:19.243Z,38.07
2024-05-09T11:10:54.187Z,37.59
2024-05-09T11:12:27.883Z,37.03
2024-05-09T11:14:01.444Z,36.97
2024-05-09T11:15:41.292Z,36.24
2024-05-09T11:17:14.937Z,35.05
2024-05-09T11:18:56.694Z,35.40
2024-05-09T11:20:40.085Z,35.46
2024-05-09T11:22:16.827Z,35.04
2024-05-09T11:23:51.188Z,35.90
2024-05-09T11:25:25.616Z,36.21
2024-05-09T11:27:01.172Z,35.57
2024-05-09T11:28:36.220Z,37.51
2024-05-09T11:31:55.611Z,37.32
2024-05-09T11:33:30.167Z,37.69
2024-05-09T11:35:03.860Z,35.91
2024-05-09T11:36:37.524Z,36.59
2024-05-09T11:38:11.517Z,35.92
2024-05-09T11:39:45.455Z,36.44
2024-05-09T11:41:19.319Z,36.61
2024-05-09T11:42:53.601Z,36.38
2024-05-09T11:44:28.116Z,36.49
2024-05-09T11:46:03.736Z,36.43
2024-05-09T11:47:37.603Z,36.55
2024-05-09T11:49:11.574Z,36.15
2024-05-09T11:50:45.165Z,35.84
2024-05-09T11:52:18.699Z,35.75
2024-05-09T11:53:52.031Z,36.55
2024-05-09T11:55:28.174Z,36.29
2024-05-09T11:57:01.881Z,36.70
2024-05-09T11:58:37.261Z,36.44
2024-05-09T12:00:14.946Z,36.70
2024-05-09T12:01:51.507Z,36.92
2024-05-09T12:03:24.918Z,36.09
2024-05-09T12:04:58.379Z,36.67
2024-05-09T12:06:31.774Z,36.81
2024-05-09T12:08:05.479Z,37.20
2024-05-09T12:09:38.916Z,36.67
2024-05-09T12:11:14.338Z,37.03
2024-05-09T12:12:47.651Z,37.75
2024-05-09T12:14:21.112Z,37.33
2024-05-09T12:15:55.223Z,37.00
2024-05-09T12:17:29.415Z,36.85
2024-05-09T12:19:03.044Z,37.33
2024-05-09T12:20:39.396Z,38.72
2024-05-09T12:22:13.704Z,41.03
2024-05-09T12:23:47.693Z,41.74
2024-05-09T12:25:21.007Z,43.27
2024-05-09T12:26:54.635Z,44.14
2024-05-09T12:28:29.558Z,44.17
2024-05-09T12:30:03.365Z,44.31
2024-05-09T12:31:38.046Z,46.28
2024-05-09T12:33:13.199Z,47.41
2024-05-09T12:34:47.358Z,47.17
2024-05-09T12:36:20.979Z,46.15
2024-05-09T12:37:54.501Z,46.50
2024-05-09T12:39:27.976Z,47.19
2024-05-09T12:41:01.457Z,45.97
2024-05-09T12:42:34.955Z,44.70
2024-05-09T12:44:08.421Z,43.53
2024-05-09T12:45:41.997Z,41.68
2024-05-09T12:47:15.840Z,41.98
2024-05-09T12:48:49.549Z,41.49
2024-05-09T12:50:29.916Z,41.14
2024-05-09T12:52:06.724Z,41.70
2024-05-09T12:53:40.426Z,40.90
2024-05-09T12:55:14.049Z,40.91
2024-05-09T12:56:47.448Z,41.08
2024-05-09T12:58:24.862Z,40.84
2024-05-09T12:59:58.286Z,40.99
2024-05-09T13:01:31.842Z,40.61
2024-05-09T13:03:05.484Z,41.27
2024-05-09T13:04:39.384Z,41.11
2024-05-09T13:06:13.144Z,41.44
2024-05-09T13:07:47.452Z,41.22
2024-05-09T13:09:20.763Z,40.71
2024-05-09T13:10:54.881Z,41.20
2024-05-09T13:12:28.526Z,40.29
2024-05-09T13:14:02.353Z,39.93
2024-05-09T13:15:37.265Z,40.43
2024-05-09T13:17:10.895Z,40.50
2024-05-09T13:18:44.606Z,40.66
2024-05-09T13:20:26.129Z,40.04
2024-05-09T13:22:06.088Z,40.53
2024-05-09T13:23:40.060Z,40.36
2024-05-09T13:25:13.889Z,40.25
2024-05-09T13:26:47.497Z,40.73
2024-05-09T13:28:21.350Z,40.44
2024-05-09T13:29:57.679Z,40.10
2024-05-09T13:31:31.071Z,40.25
2024-05-09T13:33:04.878Z,41.16
2024-05-09T13:34:38.440Z,41.31
2024-05-09T13:36:11.818Z,41.56
2024-05-09T13:37:45.179Z,41.50
2024-05-09T13:39:18.457Z,41.83
2024-05-09T13:40:52.126Z,41.31
2024-05-09T13:42:25.596Z,41.26
2024-05-09T13:43:59.070Z,41.84
2024-05-09T13:45:32.762Z,41.75
2024-05-09T13:47:06.659Z,42.18
2024-05-09T13:48:40.464Z,42.03
2024-05-09T13:50:20.620Z,43.02
2024-05-09T13:52:01.661Z,43.20
2024-05-09T13:53:35.000Z,43.88
2024-05-09T13:55:08.944Z,44.98
2024-05-09T13:56:42.405Z,46.01
2024-05-09T13:58:16.005Z,47.70
2024-05-09T13:59:49.368Z,48.82
2024-05-09T14:01:22.968Z,51.57
2024-05-09T14:02:56.940Z,54.47
2024-05-09T14:04:31.007Z,57.06
2024-05-09T14:06:04.612Z,59.69
2024-05-09T14:07:38.337Z,63.68
2024-05-09T14:09:11.855Z,66.13
2024-05-09T14:10:47.536Z,68.08
2024-05-09T14:12:21.215Z,68.81
2024-05-09T14:13:55.264Z,68.90
2024-05-09T14:15:29.334Z,72.27
2024-05-09T14:17:03.604Z,73.40
2024-05-09T14:18:37.395Z,72.00
2024-05-09T14:20:16.427Z,71.57
2024-05-09T14:21:53.464Z,71.96
2024-05-09T14:23:27.082Z,71.04
2024-05-09T14:25:00.755Z,72.81
2024-05-09T14:26:34.498Z,73.95
2024-05-09T14:28:08.394Z,76.47
2024-05-09T14:29:42.389Z,79.58
2024-05-09T14:31:16.405Z,82.36
2024-05-09T14:32:50.143Z,83.86
2024-05-09T14:34:23.866Z,83.76
2024-05-09T14:35:57.978Z,83.87
2024-05-09T14:37:31.524Z,81.62
2024-05-09T14:39:04.987Z,81.52
2024-05-09T14:40:42.737Z,82.02
2024-05-09T14:42:18.155Z,87.17
2024-05-09T14:43:52.154Z,85.93
2024-05-09T14:45:25.773Z,86.76
2024-05-09T14:47:00.224Z,90.31
2024-05-09T14:48:34.118Z,90.29
2024-05-09T14:50:11.116Z,91.20
2024-05-09T14:51:49.077Z,90.61
2024-05-09T14:53:24.088Z,89.36
2024-05-09T14:55:00.575Z,89.87
2024-05-09T14:56:34.460Z,92.38
2024-05-09T14:58:09.010Z,91.84
2024-05-09T14:59:42.799Z,93.21
2024-05-09T15:01:16.278Z,93.11
2024-05-09T15:02:49.947Z,92.75
2024-05-09T15:04:23.606Z,93.09
2024-05-09T15:05:57.166Z,93.06
2024-05-09T15:07:30.710Z,95.84
2024-05-09T15:09:06.901Z,96.61
2024-05-09T15:10:40.730Z,96.19
2024-05-09T15:12:14.145Z,97.71
2024-05-09T15:13:47.554Z,100.00
2024-05-09T15:15:21.168Z,100.00
2024-05-09T15:16:54.685Z,100.00
2024-05-09T15:18:28.362Z,100.00
2024-05-09T15:20:02.129Z,100.00
2024-05-09T15:21:35.769Z,100.00
2024-05-09T15:23:09.241Z,100.00
2024-05-09T15:24:44.965Z,100.00
2024-05-09T15:26:18.533Z,100.00
2024-05-09T15:27:52.150Z,100.00
2024-05-09T15:29:26.517Z,100.00
2024-05-09T15:31:00.701Z,100.00
2024-05-09T15:32:34.759Z,100.00
2024-05-09T15:34:08.763Z,100.00
2024-05-09T15:35:42.416Z,100.00
2024-05-09T15:37:16.278Z,100.00
2024-05-09T15:38:49.915Z,100.00
2024-05-09T15:40:31.683Z,100.00
2024-05-09T15:42:12.638Z,100.00
2024-05-09T15:43:45.825Z,100.00
2024-05-09T15:45:19.127Z,100.00
2024-05-09T15:46:53.344Z,100.00
2024-05-09T15:48:26.886Z,100.00
2024-05-09T15:50:00.361Z,100.00
2024-05-09T15:51:35.099Z,100.00
2024-05-09T15:53:09.854Z,100.00
2024-05-09T15:54:44.019Z,100.00
2024-05-09T15:56:18.204Z,100.00
2024-05-09T15:57:51.965Z,100.00
2024-05-09T15:59:26.095Z,100.00
2024-05-09T16:01:00.396Z,100.00
2024-05-09T16:02:34.471Z,100.00
2024-05-09T16:04:10.867Z,100.00
2024-05-09T16:05:48.755Z,100.00
2024-05-09T16:07:23.047Z,100.00
2024-05-09T16:08:57.067Z,100.00
2024-05-09T16:10:33.300Z,100.00
2024-05-09T16:12:08.712Z,100.00
2024-05-09T16:13:42.280Z,100.00
2024-05-09T16:15:15.881Z,100.00
2024-05-09T16:16:49.612Z,100.00
2024-05-09T16:18:23.135Z,100.00
2024-05-09T16:19:57.062Z,100.00
2024-05-09T16:21:30.617Z,100.00
2024-05-09T16:23:04.146Z,100.00
2024-05-09T16:24:37.477Z,100.00
2024-05-09T16:26:11.478Z,100.00
2024-05-09T16:27:45.449Z,100.00
2024-05-09T16:29:19.098Z,100.00
2024-05-09T16:30:52.453Z,100.00
2024-05-09T16:32:26.296Z,100.00
2024-05-09T16:34:00.252Z,100.00
2024-05-09T16:35:35.262Z,100.00
2024-05-09T16:37:11.388Z,100.00
2024-05-09T16:38:45.807Z,100.00
2024-05-09T16:40:29.199Z,100.00
2024-05-09T16:42:08.211Z,100.00
2024-05-09T16:43:41.663Z,100.00
2024-05-09T16:45:15.163Z,100.00
2024-05-09T16:46:48.766Z,100.00
2024-05-09T16:48:22.508Z,100.00
2024-05-09T16:49:56.023Z,100.00
2024-05-09T16:51:29.389Z,100.00
2024-05-09T16:53:04.485Z,100.00
2024-05-09T16:54:38.415Z,100.00
2024-05-09T16:56:12.418Z,100.00
2024-05-09T16:57:46.320Z,100.00
2024-05-09T16:59:20.110Z,100.00
2024-05-09T17:00:53.813Z,100.00
2024-05-09T17:02:27.469Z,100.00
2024-05-09T17:04:01.161Z,100.00
2024-05-09T17:05:35.286Z,100.00
2024-05-09T17:07:09.375Z,100.00
2024-05-09T17:08:44.038Z,100.00
2024-05-09T17:10:26.489Z,100.00
2024-05-09T17:12:06.274Z,100.00
2024-05-09T17:13:41.185Z,100.00
2024-05-09T17:15:14.725Z,100.00
2024-05-09T17:16:48.511Z,100.00
2024-05-09T17:18:22.144Z,100.00
2024-05-09T17:19:55.734Z,100.00
2024-05-09T17:21:29.239Z,100.00
2024-05-09T17:23:03.314Z,100.00
2024-05-09T17:24:37.347Z,100.00
2024-05-09T17:26:11.107Z,100.00
2024-05-09T17:27:44.757Z,100.00
2024-05-09T17:29:18.437Z,100.00
2024-05-09T17:30:52.513Z,100.00
2024-05-09T17:32:26.245Z,100.00
2024-05-09T17:33:59.867Z,100.00
2024-05-09T17:35:33.708Z,100.00
2024-05-09T17:37:09.899Z,100.00
2024-05-09T17:38:43.461Z,100.00
2024-05-09T17:40:20.563Z,100.00
2024-05-09T17:41:57.967Z,100.00
2024-05-09T17:43:31.774Z,100.00
2024-05-09T17:45:05.661Z,100.00
2024-05-09T17:46:39.508Z,100.00
2024-05-09T17:48:13.475Z,100.00
2024-05-09T17:49:46.969Z,100.00
2024-05-09T17:51:21.080Z,100.00
2024-05-09T17:52:54.547Z,100.00
2024-05-09T17:54:28.134Z,100.00
2024-05-09T17:56:01.939Z,100.00
2024-05-09T17:57:35.545Z,100.00
2024-05-09T17:59:11.286Z,100.00
2024-05-09T18:00:45.467Z,100.00
2024-05-09T18:02:19.938Z,100.00
2024-05-09T18:03:53.963Z,100.00
2024-05-09T18:05:29.644Z,100.00
2024-05-09T18:07:03.895Z,100.00
2024-05-09T18:08:37.777Z,100.00
2024-05-09T18:10:19.296Z,100.00
2024-05-09T18:11:58.931Z,100.00
2024-05-09T18:13:32.977Z,100.00
2024-05-09T18:15:06.823Z,100.00
2024-05-09T18:16:41.399Z,100.00
2024-05-09T18:18:15.604Z,100.00
2024-05-09T18:19:50.282Z,100.00
2024-05-09T18:21:23.834Z,100.00
2024-05-09T18:22:57.374Z,100.00
2024-05-09T18:24:30.777Z,100.00
2024-05-09T18:26:06.035Z,100.00
2024-05-09T18:27:39.580Z,100.00
2024-05-09T18:29:13.200Z,100.00
2024-05-09T18:30:46.882Z,100.00
2024-05-09T18:32:21.184Z,100.00
2024-05-09T18:33:54.985Z,100.00
2024-05-09T18:35:28.762Z,100.00
2024-05-09T18:37:04.291Z,100.00
2024-05-09T18:38:38.465Z,100.00
2024-05-09T18:40:20.915Z,100.00
2024-05-09T18:42:02.719Z,100.00
2024-05-09T18:43:42.257Z,100.00
2024-05-09T18:45:19.236Z,100.00
2024-05-09T18:46:52.948Z,100.00
2024-05-09T18:48:26.777Z,100.00
2024-05-09T18:50:00.582Z,100.00
2024-05-09T18:51:34.255Z,100.00
2024-05-09T18:53:08.336Z,100.00
2024-05-09T18:54:42.138Z,100.00
2024-05-09T18:56:15.673Z,100.00
2024-05-09T18:57:49.399Z,100.00
2024-05-09T18:59:23.055Z,100.00
2024-05-09T19:00:59.131Z,100.00
2024-05-09T19:02:34.526Z,100.00
2024-05-09T19:04:08.465Z,100.00
2024-05-09T19:05:44.676Z,100.00
2024-05-09T19:07:19.987Z,100.00
2024-05-09T19:08:53.787Z,100.00
2024-05-09T19:10:34.010Z,100.00
2024-05-09T19:12:09.856Z,100.00
2024-05-09T19:13:43.471Z,100.00
2024-05-09T19:15:16.793Z,100.00
2024-05-09T19:16:50.347Z,100.00
2024-05-09T19:18:23.861Z,100.00
2024-05-09T19:19:57.450Z,100.00
2024-05-09T19:21:31.173Z,100.00
2024-05-09T19:23:06.457Z,100.00
2024-05-09T19:24:40.341Z,100.00
2024-05-09T19:26:14.009Z,100.00
2024-05-09T19:27:47.706Z,100.00
2024-05-09T19:29:21.495Z,100.00
2024-05-09T19:30:55.164Z,100.00
2024-05-09T19:32:28.672Z,100.00
2024-05-09T19:34:02.424Z,100.00
2024-05-09T19:35:35.990Z,100.00
2024-05-09T19:37:09.903Z,100.00
2024-05-09T19:38:43.488Z,100.00
2024-05-09T19:40:24.625Z,100.00
2024-05-09T19:42:03.600Z,100.00
2024-05-09T19:43:37.208Z,100.00
2024-05-09T19:45:10.669Z,100.00
2024-05-09T19:46:44.133Z,100.00
2024-05-09T19:48:17.831Z,100.00
2024-05-09T19:49:52.116Z,100.00
2024-05-09T19:51:25.635Z,100.00
2024-05-09T19:52:59.020Z,100.00
2024-05-09T19:54:32.637Z,100.00
2024-05-09T19:56:06.319Z,100.00
2024-05-09T19:57:39.842Z,100.00
2024-05-09T19:59:13.795Z,100.00
2024-05-09T20:00:47.353Z,100.00
2024-05-09T20:02:21.187Z,100.00
2024-05-09T20:03:59.359Z,100.00
2024-05-09T20:05:33.439Z,100.00
2024-05-09T20:07:07.266Z,100.00
2024-05-09T20:08:40.710Z,100.00
2024-05-09T20:10:23.088Z,100.00
2024-05-09T20:11:59.596Z,100.00
2024-05-09T20:13:33.024Z,100.00
2024-05-09T20:15:06.829Z,100.00
2024-05-09T20:16:40.213Z,100.00
2024-05-09T20:18:13.590Z,100.00